Luminous Kobe-2 — JJ3868 — position and weather

sailwx.info

Track history (hours):
 
Tides and Currents Weather Stations Pressure Air Temp Water Temp Dewpoint Dewpoint Depression Visibility Wind Speed Wind Dir Waves Ship Positions

Luminous Kobe-2

Last reported at 2016-Feb-14 09:29 UTC. Time now 2016-Feb-14 10:13 UTC.
Position N 34°41' E 135°11'.

Length 105 m; draft 4.5 m.

Type: Passenger vessel. MMSI: 431000469.

Date/timePositionNaut miles runAvg speedWind from/ knotsBaromVisibWave heightAir tempDewpointWater temp
2016-Feb-14 09:29N 34°41' E 135°11'2 1.8
2016-Feb-14 08:33N 34°39' E 135°11'3 2.9
2016-Feb-14 07:33N 34°37' E 135°13'4 4.4
2016-Feb-14 06:33N 34°41' E 135°11'0 0.0
2016-Feb-14 05:33N 34°41' E 135°11'2 2.1
2016-Feb-14 04:33N 34°39' E 135°11'3 3.2
2016-Feb-14 03:34N 34°36' E 135°14'5 4.6
2016-Feb-14 02:30N 34°41' E 135°11'0 0.0
2016-Feb-14 01:30N 34°41' E 135°11'0 0.0
2016-Feb-14 00:30N 34°41' E 135°11'0 0.0
2016-Feb-13 23:30N 34°41' E 135°11'0 0.0
2016-Feb-13 22:30N 34°41' E 135°11'0 0.0
2016-Feb-13 21:30N 34°41' E 135°11'0 0.0
2016-Feb-13 20:24N 34°41' E 135°11'0 0.0
2016-Feb-13 19:24N 34°41' E 135°11'0 0.0
2016-Feb-13 18:30N 34°41' E 135°11'0 0.0
2016-Feb-13 17:24N 34°41' E 135°11'0 0.0
2016-Feb-13 16:30N 34°41' E 135°11'0 0.0
2016-Feb-13 15:30N 34°41' E 135°11'0 0.0
2016-Feb-13 14:30N 34°41' E 135°11'0 0.0
2016-Feb-13 13:30N 34°41' E 135°11'0 0.0
2016-Feb-13 12:30N 34°41' E 135°11'6 6.4
2016-Feb-13 11:33N 34°36' E 135°06'1 0.7
2016-Feb-13 10:33N 34°37' E 135°07'6 5.6
2016-Feb-13 09:33N 34°41' E 135°11'2 1.9
2016-Feb-13 08:33N 34°39' E 135°11'2 2.1
2016-Feb-13 07:33N 34°37' E 135°13'4 3.2
2016-Feb-13 06:24N 34°41' E 135°11'0 0.0
2016-Feb-13 05:30N 34°41' E 135°11'2 1.9
2016-Feb-13 04:33N 34°39' E 135°11'2 2.1
2016-Feb-13 03:33N 34°37' E 135°13'4 3.3
2016-Feb-13 02:28N 34°41' E 135°11'0 0.0
2016-Feb-13 01:28N 34°41' E 135°11'0 0.0
2016-Feb-13 00:28N 34°41' E 135°11'0 0.0
2016-Feb-12 23:28N 34°41' E 135°11'0 0.0
2016-Feb-12 22:28N 34°41' E 135°11'0 0.0
2016-Feb-12 21:28N 34°41' E 135°11'0 0.0
2016-Feb-12 20:22N 34°41' E 135°11'0 0.0
2016-Feb-12 19:28N 34°41' E 135°11'0 0.0
2016-Feb-12 18:28N 34°41' E 135°11'0 0.0
2016-Feb-12 17:28N 34°41' E 135°11'0 0.0
2016-Feb-12 16:28N 34°41' E 135°11'0 0.0
2016-Feb-12 15:34N 34°41' E 135°11'0 0.0
2016-Feb-12 14:34N 34°41' E 135°11'0 0.0
2016-Feb-12 13:28N 34°41' E 135°11'0 0.0
2016-Feb-12 12:28N 34°41' E 135°11'6 6.3
2016-Feb-12 11:33N 34°36' E 135°07'1 0.9
2016-Feb-12 10:33N 34°37' E 135°06'6 5.9
2016-Feb-12 09:31N 34°41' E 135°11'5 5.0
2016-Feb-12 08:34N 34°37' E 135°08'5 4.6
2016-Feb-12 07:31N 34°41' E 135°11'0 0.0
2016-Feb-12 06:25N 34°41' E 135°11'0 0.0
2016-Feb-12 05:31N 34°41' E 135°11'2 2.0
2016-Feb-12 04:33N 34°39' E 135°11'2 2.0
2016-Feb-12 03:33N 34°37' E 135°13'4 3.3
2016-Feb-12 02:28N 34°41' E 135°11'0 0.0
2016-Feb-12 01:28N 34°41' E 135°11'0 0.0
2016-Feb-12 00:28N 34°41' E 135°11'0 0.0
2016-Feb-11 23:28N 34°41' E 135°11'0 0.0
2016-Feb-11 22:22N 34°41' E 135°11'0 0.0
2016-Feb-11 21:22N 34°41' E 135°11'0 0.0
2016-Feb-11 20:28N 34°41' E 135°11'0 0.0
2016-Feb-11 19:22N 34°41' E 135°11'0 0.0
2016-Feb-11 18:28N 34°41' E 135°11'0 0.0
2016-Feb-11 17:28N 34°41' E 135°11'0 0.0
2016-Feb-11 16:28N 34°41' E 135°11'0 0.0
2016-Feb-11 15:22N 34°41' E 135°11'0 0.0
2016-Feb-11 14:10N 34°41' E 135°11'0 0.0
2016-Feb-11 13:28N 34°41' E 135°11'0 0.0
2016-Feb-11 12:26N 34°41' E 135°11'6 7.2
2016-Feb-11 11:33N 34°36' E 135°07'1 1.0
2016-Feb-11 10:33N 34°37' E 135°06'6 5.8
2016-Feb-11 09:31N 34°41' E 135°11'2 1.9
2016-Feb-11 08:33N 34°39' E 135°11'2 2.0
2016-Feb-11 07:33N 34°37' E 135°13'4 3.5
2016-Feb-11 06:30N 34°41' E 135°11'0 0.0
2016-Feb-11 05:30N 34°41' E 135°11'2 2.0
2016-Feb-11 04:33N 34°39' E 135°11'2 2.3
2016-Feb-11 03:33N 34°37' E 135°13'4 3.6
2016-Feb-11 02:30N 34°41' E 135°11'0 0.0
2016-Feb-11 01:30N 34°41' E 135°11'0 0.0
2016-Feb-11 00:24N 34°41' E 135°11'0 0.0
2016-Feb-10 23:24N 34°41' E 135°11'0 0.0
2016-Feb-10 21:30N 34°41' E 135°11'0 0.0
2016-Feb-10 20:30N 34°41' E 135°11'0 0.0
2016-Feb-10 19:30N 34°41' E 135°11'0 0.0
2016-Feb-10 18:30N 34°41' E 135°11'0 0.0
2016-Feb-10 17:30N 34°41' E 135°11'0 0.0
2016-Feb-10 16:30N 34°41' E 135°11'0 0.0
2016-Feb-10 15:30N 34°41' E 135°11'0 0.0
2016-Feb-10 14:18N 34°41' E 135°11'0 0.0
2016-Feb-10 13:30N 34°41' E 135°11'0 0.0
2016-Feb-10 12:30N 34°41' E 135°11'6 6.5
2016-Feb-10 11:34N 34°36' E 135°07'1 1.0
2016-Feb-10 10:33N 34°37' E 135°06'5 2.1
2016-Feb-10 08:16N 34°39' E 135°11'2 2.8
2016-Feb-10 07:30N 34°41' E 135°11'0 0.0
2016-Feb-10 06:30N 34°41' E 135°11'0 0.0
2016-Feb-10 05:30N 34°41' E 135°11'2 2.2
2016-Feb-10 04:33N 34°39' E 135°11'2 2.2
2016-Feb-10 03:33N 34°38' E 135°13'4 3.6
2016-Feb-10 02:31N 34°41' E 135°11'0 0.0
2016-Feb-10 01:19N 34°41' E 135°11'0 0.0
2016-Feb-10 00:31N 34°41' E 135°11'0 0.0
2016-Feb-09 23:31N 34°41' E 135°11'0 0.0
2016-Feb-09 22:31N 34°41' E 135°11'0 0.0
2016-Feb-09 21:31N 34°41' E 135°11'0 0.0
2016-Feb-09 20:31N 34°41' E 135°11'0 0.0
2016-Feb-09 19:31N 34°41' E 135°11'0 0.0
2016-Feb-09 18:31N 34°41' E 135°11'0 0.0
2016-Feb-09 17:31N 34°41' E 135°11'0 0.0
2016-Feb-09 16:25N 34°41' E 135°11'0 0.0
2016-Feb-09 15:31N 34°41' E 135°11'0 0.0
2016-Feb-09 14:31N 34°41' E 135°11'0 0.0
2016-Feb-09 13:19N 34°41' E 135°11'0 0.0
2016-Feb-09 12:31N 34°41' E 135°11'7 7.0
2016-Feb-09 11:33N 34°36' E 135°06'1 1.1
2016-Feb-09 10:34N 34°37' E 135°06'6 6.0
2016-Feb-09 09:31N 34°41' E 135°11'5 4.9
2016-Feb-09 08:33N 34°37' E 135°08'5 4.8
2016-Feb-09 07:33N 34°41' E 135°11'0 0.0
2016-Feb-09 06:33N 34°41' E 135°11'0 0.0
2016-Feb-09 05:33N 34°41' E 135°11'2 2.0
2016-Feb-09 04:33N 34°39' E 135°11'3 3.2
2016-Feb-09 03:33N 34°37' E 135°14'5 4.3
2016-Feb-09 02:28N 34°41' E 135°11'0 0.0
2016-Feb-09 01:28N 34°41' E 135°11'0 0.0
2016-Feb-09 00:28N 34°41' E 135°11'0 0.0
2016-Feb-08 23:28N 34°41' E 135°11'0 0.0
2016-Feb-08 22:28N 34°41' E 135°11'0 0.0
2016-Feb-08 21:28N 34°41' E 135°11'0 0.0
2016-Feb-08 20:28N 34°41' E 135°11'0 0.0
2016-Feb-08 19:28N 34°41' E 135°11'0 0.0
2016-Feb-08 18:22N 34°41' E 135°11'0 0.0
2016-Feb-08 17:28N 34°41' E 135°11'0 0.0
2016-Feb-08 16:28N 34°41' E 135°11'0 0.0
2016-Feb-08 15:22N 34°41' E 135°11'0 0.0
2016-Feb-08 14:22N 34°41' E 135°11'0 0.0
2016-Feb-08 13:28N 34°41' E 135°11'0 0.0
2016-Feb-08 12:28N 34°41' E 135°11'6 7.2
2016-Feb-08 11:33N 34°36' E 135°06'1 0.8
2016-Feb-08 10:34N 34°36' E 135°06'6 5.2
2016-Feb-08 09:21N 34°41' E 135°11'5 6.2
2016-Feb-08 08:33N 34°37' E 135°08'5 4.9
2016-Feb-08 07:33N 34°41' E 135°11'0 0.0
2016-Feb-08 06:33N 34°41' E 135°11'0 0.0
2016-Feb-08 05:33N 34°41' E 135°11'2 1.8
2016-Feb-08 04:33N 34°39' E 135°11'2 2.3
2016-Feb-08 03:33N 34°37' E 135°13'4 3.9
2016-Feb-08 02:33N 34°41' E 135°11'0 0.0
2016-Feb-08 01:27N 34°41' E 135°11'0 0.0
2016-Feb-08 00:33N 34°41' E 135°11'0 0.0
2016-Feb-07 23:27N 34°41' E 135°11'0 0.0
2016-Feb-07 21:33N 34°41' E 135°11'0 0.0
2016-Feb-07 20:33N 34°41' E 135°11'0 0.0
2016-Feb-07 19:33N 34°41' E 135°11'0 0.0
2016-Feb-07 18:33N 34°41' E 135°11'0 0.0
2016-Feb-07 17:33N 34°41' E 135°11'0 0.0
2016-Feb-07 16:33N 34°41' E 135°11'0 0.0
2016-Feb-07 15:33N 34°41' E 135°11'0 0.0
2016-Feb-07 14:33N 34°41' E 135°11'0 0.0
2016-Feb-07 13:27N 34°41' E 135°11'0 0.0
2016-Feb-07 12:33N 34°41' E 135°11'5 5.5
2016-Feb-07 11:33N 34°36' E 135°08'2 1.6
2016-Feb-07 10:33N 34°37' E 135°06'6 5.9
2016-Feb-07 09:31N 34°41' E 135°11'2 2.1
2016-Feb-07 08:33N 34°39' E 135°11'2 2.2
2016-Feb-07 07:33N 34°37' E 135°13'4 3.8
2016-Feb-07 06:33N 34°41' E 135°11'0 0.0
2016-Feb-07 05:33N 34°41' E 135°11'2 1.7
2016-Feb-07 04:33N 34°39' E 135°11'2 2.4
2016-Feb-07 03:33N 34°37' E 135°13'4 3.8
2016-Feb-07 02:33N 34°41' E 135°11'0 0.0
2016-Feb-07 01:27N 34°41' E 135°11'0 0.0
2016-Feb-07 00:33N 34°41' E 135°11'0 0.0
2016-Feb-06 23:33N 34°41' E 135°11'0 0.0
2016-Feb-06 22:33N 34°41' E 135°11'0 0.0
2016-Feb-06 21:33N 34°41' E 135°11'0 0.0
2016-Feb-06 20:33N 34°41' E 135°11'0 0.0
2016-Feb-06 19:33N 34°41' E 135°11'0 0.0
2016-Feb-06 18:33N 34°41' E 135°11'0 0.0
2016-Feb-06 17:33N 34°41' E 135°11'0 0.0
2016-Feb-06 16:33N 34°41' E 135°11'0 0.0
2016-Feb-06 15:27N 34°41' E 135°11'0 0.0
2016-Feb-06 14:33N 34°41' E 135°11'0 0.0
2016-Feb-06 13:33N 34°41' E 135°11'0 0.0
2016-Feb-06 12:27N 34°41' E 135°11'7 7.9
2016-Feb-06 11:33N 34°35' E 135°06'1 1.4
2016-Feb-06 10:33N 34°37' E 135°06'6 5.8
2016-Feb-06 09:29N 34°41' E 135°11'2 2.1
2016-Feb-06 08:33N 34°39' E 135°11'2 2.3
2016-Feb-06 07:33N 34°37' E 135°13'4 3.7
2016-Feb-06 06:31N 34°41' E 135°11'0 0.0
2016-Feb-06 05:31N 34°41' E 135°11'2 1.9
2016-Feb-06 04:33N 34°39' E 135°11'2 2.4
2016-Feb-06 03:33N 34°37' E 135°13'4 3.6
2016-Feb-06 02:29N 34°41' E 135°11'0 0.0
2016-Feb-06 01:29N 34°41' E 135°11'0 0.0
2016-Feb-06 00:23N 34°41' E 135°11'0 0.0
2016-Feb-05 23:29N 34°41' E 135°11'0 0.0
2016-Feb-05 22:29N 34°41' E 135°11'0 0.0
2016-Feb-05 21:23N 34°41' E 135°11'0 0.0
2016-Feb-05 20:29N 34°41' E 135°11'0 0.0
2016-Feb-05 19:29N 34°41' E 135°11'0 0.0
2016-Feb-05 17:29N 34°41' E 135°11'0 0.0
2016-Feb-05 16:29N 34°41' E 135°11'0 0.0
2016-Feb-05 15:29N 34°41' E 135°11'0 0.0
2016-Feb-05 14:29N 34°41' E 135°11'0 0.0
2016-Feb-05 13:29N 34°41' E 135°11'0 0.0
2016-Feb-05 12:29N 34°41' E 135°11'5 5.8
2016-Feb-05 11:33N 34°36' E 135°08'1 1.4
2016-Feb-05 10:33N 34°37' E 135°06'6 5.9
2016-Feb-05 09:30N 34°41' E 135°11'5 5.3
2016-Feb-05 08:33N 34°37' E 135°07'5 4.2
2016-Feb-05 07:22N 34°41' E 135°11'0 0.0
2016-Feb-05 06:28N 34°41' E 135°11'0 0.0
2016-Feb-05 05:28N 34°41' E 135°11'2 2.3
2016-Feb-05 04:33N 34°39' E 135°11'2 2.2
2016-Feb-05 03:33N 34°37' E 135°13'4 3.8
2016-Feb-05 02:32N 34°41' E 135°11'0 0.0
2016-Feb-05 01:32N 34°41' E 135°11'0 0.0
2016-Feb-05 00:26N 34°41' E 135°11'0 0.0
2016-Feb-04 23:32N 34°41' E 135°11'0 0.0
2016-Feb-04 22:32N 34°41' E 135°11'0 0.0
2016-Feb-04 21:26N 34°41' E 135°11'0 0.0
2016-Feb-04 20:32N 34°41' E 135°11'0 0.0
2016-Feb-04 19:32N 34°41' E 135°11'0 0.0
2016-Feb-04 18:32N 34°41' E 135°11'0 0.0
2016-Feb-04 17:32N 34°41' E 135°11'0 0.0
2016-Feb-04 16:32N 34°41' E 135°11'0 0.0
2016-Feb-04 15:32N 34°41' E 135°11'0 0.0
2016-Feb-04 14:32N 34°41' E 135°11'0 0.0
2016-Feb-04 13:32N 34°41' E 135°11'0 0.0
2016-Feb-04 12:20N 34°41' E 135°11'5 6.7
2016-Feb-04 11:34N 34°37' E 135°07'1 1.2
2016-Feb-04 10:33N 34°37' E 135°06'6 5.8
2016-Feb-04 09:30N 34°41' E 135°11'  
Track history (hours):
 
Tides and Currents Weather Stations Pressure Air Temp Water Temp Dewpoint Dewpoint Depression Visibility Wind Speed Wind Dir Waves Ship Positions

Luminous Kobe-2

Last reported at 2016-Feb-14 09:29 UTC. Time now 2016-Feb-14 10:13 UTC.
Position N 34°41' E 135°11'.

Length 105 m; draft 4.5 m.

Type: Passenger vessel. MMSI: 431000469.

Date/timePositionNaut miles runAvg speedWind from/ knotsBaromVisibWave heightAir tempDewpointWater temp
2016-Feb-14 09:29N 34°41' E 135°11'2 1.8
2016-Feb-14 08:33N 34°39' E 135°11'3 2.9
2016-Feb-14 07:33N 34°37' E 135°13'4 4.4
2016-Feb-14 06:33N 34°41' E 135°11'0 0.0
2016-Feb-14 05:33N 34°41' E 135°11'2 2.1
2016-Feb-14 04:33N 34°39' E 135°11'3 3.2
2016-Feb-14 03:34N 34°36' E 135°14'5 4.6
2016-Feb-14 02:30N 34°41' E 135°11'0 0.0
2016-Feb-14 01:30N 34°41' E 135°11'0 0.0
2016-Feb-14 00:30N 34°41' E 135°11'0 0.0
2016-Feb-13 23:30N 34°41' E 135°11'0 0.0
2016-Feb-13 22:30N 34°41' E 135°11'0 0.0
2016-Feb-13 21:30N 34°41' E 135°11'0 0.0
2016-Feb-13 20:24N 34°41' E 135°11'0 0.0
2016-Feb-13 19:24N 34°41' E 135°11'0 0.0
2016-Feb-13 18:30N 34°41' E 135°11'0 0.0
2016-Feb-13 17:24N 34°41' E 135°11'0 0.0
2016-Feb-13 16:30N 34°41' E 135°11'0 0.0
2016-Feb-13 15:30N 34°41' E 135°11'0 0.0
2016-Feb-13 14:30N 34°41' E 135°11'0 0.0
2016-Feb-13 13:30N 34°41' E 135°11'0 0.0
2016-Feb-13 12:30N 34°41' E 135°11'6 6.4
2016-Feb-13 11:33N 34°36' E 135°06'1 0.7
2016-Feb-13 10:33N 34°37' E 135°07'6 5.6
2016-Feb-13 09:33N 34°41' E 135°11'2 1.9
2016-Feb-13 08:33N 34°39' E 135°11'2 2.1
2016-Feb-13 07:33N 34°37' E 135°13'4 3.2
2016-Feb-13 06:24N 34°41' E 135°11'0 0.0
2016-Feb-13 05:30N 34°41' E 135°11'2 1.9
2016-Feb-13 04:33N 34°39' E 135°11'2 2.1
2016-Feb-13 03:33N 34°37' E 135°13'4 3.3
2016-Feb-13 02:28N 34°41' E 135°11'0 0.0
2016-Feb-13 01:28N 34°41' E 135°11'0 0.0
2016-Feb-13 00:28N 34°41' E 135°11'0 0.0
2016-Feb-12 23:28N 34°41' E 135°11'0 0.0
2016-Feb-12 22:28N 34°41' E 135°11'0 0.0
2016-Feb-12 21:28N 34°41' E 135°11'0 0.0
2016-Feb-12 20:22N 34°41' E 135°11'0 0.0
2016-Feb-12 19:28N 34°41' E 135°11'0 0.0
2016-Feb-12 18:28N 34°41' E 135°11'0 0.0
2016-Feb-12 17:28N 34°41' E 135°11'0 0.0
2016-Feb-12 16:28N 34°41' E 135°11'0 0.0
2016-Feb-12 15:34N 34°41' E 135°11'0 0.0
2016-Feb-12 14:34N 34°41' E 135°11'0 0.0
2016-Feb-12 13:28N 34°41' E 135°11'0 0.0
2016-Feb-12 12:28N 34°41' E 135°11'6 6.3
2016-Feb-12 11:33N 34°36' E 135°07'1 0.9
2016-Feb-12 10:33N 34°37' E 135°06'6 5.9
2016-Feb-12 09:31N 34°41' E 135°11'5 5.0
2016-Feb-12 08:34N 34°37' E 135°08'5 4.6
2016-Feb-12 07:31N 34°41' E 135°11'0 0.0
2016-Feb-12 06:25N 34°41' E 135°11'0 0.0
2016-Feb-12 05:31N 34°41' E 135°11'2 2.0
2016-Feb-12 04:33N 34°39' E 135°11'2 2.0
2016-Feb-12 03:33N 34°37' E 135°13'4 3.3
2016-Feb-12 02:28N 34°41' E 135°11'0 0.0
2016-Feb-12 01:28N 34°41' E 135°11'0 0.0
2016-Feb-12 00:28N 34°41' E 135°11'0 0.0
2016-Feb-11 23:28N 34°41' E 135°11'0 0.0
2016-Feb-11 22:22N 34°41' E 135°11'0 0.0
2016-Feb-11 21:22N 34°41' E 135°11'0 0.0
2016-Feb-11 20:28N 34°41' E 135°11'0 0.0
2016-Feb-11 19:22N 34°41' E 135°11'0 0.0
2016-Feb-11 18:28N 34°41' E 135°11'0 0.0
2016-Feb-11 17:28N 34°41' E 135°11'0 0.0
2016-Feb-11 16:28N 34°41' E 135°11'0 0.0
2016-Feb-11 15:22N 34°41' E 135°11'0 0.0
2016-Feb-11 14:10N 34°41' E 135°11'0 0.0
2016-Feb-11 13:28N 34°41' E 135°11'0 0.0
2016-Feb-11 12:26N 34°41' E 135°11'6 7.2
2016-Feb-11 11:33N 34°36' E 135°07'1 1.0
2016-Feb-11 10:33N 34°37' E 135°06'6 5.8
2016-Feb-11 09:31N 34°41' E 135°11'2 1.9
2016-Feb-11 08:33N 34°39' E 135°11'2 2.0
2016-Feb-11 07:33N 34°37' E 135°13'4 3.5
2016-Feb-11 06:30N 34°41' E 135°11'0 0.0
2016-Feb-11 05:30N 34°41' E 135°11'2 2.0
2016-Feb-11 04:33N 34°39' E 135°11'2 2.3
2016-Feb-11 03:33N 34°37' E 135°13'4 3.6
2016-Feb-11 02:30N 34°41' E 135°11'0 0.0
2016-Feb-11 01:30N 34°41' E 135°11'0 0.0
2016-Feb-11 00:24N 34°41' E 135°11'0 0.0
2016-Feb-10 23:24N 34°41' E 135°11'0 0.0
2016-Feb-10 21:30N 34°41' E 135°11'0 0.0
2016-Feb-10 20:30N 34°41' E 135°11'0 0.0
2016-Feb-10 19:30N 34°41' E 135°11'0 0.0
2016-Feb-10 18:30N 34°41' E 135°11'0 0.0
2016-Feb-10 17:30N 34°41' E 135°11'0 0.0
2016-Feb-10 16:30N 34°41' E 135°11'0 0.0
2016-Feb-10 15:30N 34°41' E 135°11'0 0.0
2016-Feb-10 14:18N 34°41' E 135°11'0 0.0
2016-Feb-10 13:30N 34°41' E 135°11'0 0.0
2016-Feb-10 12:30N 34°41' E 135°11'6 6.5
2016-Feb-10 11:34N 34°36' E 135°07'1 1.0
2016-Feb-10 10:33N 34°37' E 135°06'5 2.1
2016-Feb-10 08:16N 34°39' E 135°11'2 2.8
2016-Feb-10 07:30N 34°41' E 135°11'0 0.0
2016-Feb-10 06:30N 34°41' E 135°11'0 0.0
2016-Feb-10 05:30N 34°41' E 135°11'2 2.2
2016-Feb-10 04:33N 34°39' E 135°11'2 2.2
2016-Feb-10 03:33N 34°38' E 135°13'4 3.6
2016-Feb-10 02:31N 34°41' E 135°11'0 0.0
2016-Feb-10 01:19N 34°41' E 135°11'0 0.0
2016-Feb-10 00:31N 34°41' E 135°11'0 0.0
2016-Feb-09 23:31N 34°41' E 135°11'0 0.0
2016-Feb-09 22:31N 34°41' E 135°11'0 0.0
2016-Feb-09 21:31N 34°41' E 135°11'0 0.0
2016-Feb-09 20:31N 34°41' E 135°11'0 0.0
2016-Feb-09 19:31N 34°41' E 135°11'0 0.0
2016-Feb-09 18:31N 34°41' E 135°11'0 0.0
2016-Feb-09 17:31N 34°41' E 135°11'0 0.0
2016-Feb-09 16:25N 34°41' E 135°11'0 0.0
2016-Feb-09 15:31N 34°41' E 135°11'0 0.0
2016-Feb-09 14:31N 34°41' E 135°11'0 0.0
2016-Feb-09 13:19N 34°41' E 135°11'0 0.0
2016-Feb-09 12:31N 34°41' E 135°11'7 7.0
2016-Feb-09 11:33N 34°36' E 135°06'1 1.1
2016-Feb-09 10:34N 34°37' E 135°06'6 6.0
2016-Feb-09 09:31N 34°41' E 135°11'5 4.9
2016-Feb-09 08:33N 34°37' E 135°08'5 4.8
2016-Feb-09 07:33N 34°41' E 135°11'0 0.0
2016-Feb-09 06:33N 34°41' E 135°11'0 0.0
2016-Feb-09 05:33N 34°41' E 135°11'2 2.0
2016-Feb-09 04:33N 34°39' E 135°11'3 3.2
2016-Feb-09 03:33N 34°37' E 135°14'5 4.3
2016-Feb-09 02:28N 34°41' E 135°11'0 0.0
2016-Feb-09 01:28N 34°41' E 135°11'0 0.0
2016-Feb-09 00:28N 34°41' E 135°11'0 0.0
2016-Feb-08 23:28N 34°41' E 135°11'0 0.0
2016-Feb-08 22:28N 34°41' E 135°11'0 0.0
2016-Feb-08 21:28N 34°41' E 135°11'0 0.0
2016-Feb-08 20:28N 34°41' E 135°11'0 0.0
2016-Feb-08 19:28N 34°41' E 135°11'0 0.0
2016-Feb-08 18:22N 34°41' E 135°11'0 0.0
2016-Feb-08 17:28N 34°41' E 135°11'0 0.0
2016-Feb-08 16:28N 34°41' E 135°11'0 0.0
2016-Feb-08 15:22N 34°41' E 135°11'0 0.0
2016-Feb-08 14:22N 34°41' E 135°11'0 0.0
2016-Feb-08 13:28N 34°41' E 135°11'0 0.0
2016-Feb-08 12:28N 34°41' E 135°11'6 7.2
2016-Feb-08 11:33N 34°36' E 135°06'1 0.8
2016-Feb-08 10:34N 34°36' E 135°06'6 5.2
2016-Feb-08 09:21N 34°41' E 135°11'5 6.2
2016-Feb-08 08:33N 34°37' E 135°08'5 4.9
2016-Feb-08 07:33N 34°41' E 135°11'0 0.0
2016-Feb-08 06:33N 34°41' E 135°11'0 0.0
2016-Feb-08 05:33N 34°41' E 135°11'2 1.8
2016-Feb-08 04:33N 34°39' E 135°11'2 2.3
2016-Feb-08 03:33N 34°37' E 135°13'4 3.9
2016-Feb-08 02:33N 34°41' E 135°11'0 0.0
2016-Feb-08 01:27N 34°41' E 135°11'0 0.0
2016-Feb-08 00:33N 34°41' E 135°11'0 0.0
2016-Feb-07 23:27N 34°41' E 135°11'0 0.0
2016-Feb-07 21:33N 34°41' E 135°11'0 0.0
2016-Feb-07 20:33N 34°41' E 135°11'0 0.0
2016-Feb-07 19:33N 34°41' E 135°11'0 0.0
2016-Feb-07 18:33N 34°41' E 135°11'0 0.0
2016-Feb-07 17:33N 34°41' E 135°11'0 0.0
2016-Feb-07 16:33N 34°41' E 135°11'0 0.0
2016-Feb-07 15:33N 34°41' E 135°11'0 0.0
2016-Feb-07 14:33N 34°41' E 135°11'0 0.0
2016-Feb-07 13:27N 34°41' E 135°11'0 0.0
2016-Feb-07 12:33N 34°41' E 135°11'5 5.5
2016-Feb-07 11:33N 34°36' E 135°08'2 1.6
2016-Feb-07 10:33N 34°37' E 135°06'6 5.9
2016-Feb-07 09:31N 34°41' E 135°11'2 2.1
2016-Feb-07 08:33N 34°39' E 135°11'2 2.2
2016-Feb-07 07:33N 34°37' E 135°13'4 3.8
2016-Feb-07 06:33N 34°41' E 135°11'0 0.0
2016-Feb-07 05:33N 34°41' E 135°11'2 1.7
2016-Feb-07 04:33N 34°39' E 135°11'2 2.4
2016-Feb-07 03:33N 34°37' E 135°13'4 3.8
2016-Feb-07 02:33N 34°41' E 135°11'0 0.0
2016-Feb-07 01:27N 34°41' E 135°11'0 0.0
2016-Feb-07 00:33N 34°41' E 135°11'0 0.0
2016-Feb-06 23:33N 34°41' E 135°11'0 0.0
2016-Feb-06 22:33N 34°41' E 135°11'0 0.0
2016-Feb-06 21:33N 34°41' E 135°11'0 0.0
2016-Feb-06 20:33N 34°41' E 135°11'0 0.0
2016-Feb-06 19:33N 34°41' E 135°11'0 0.0
2016-Feb-06 18:33N 34°41' E 135°11'0 0.0
2016-Feb-06 17:33N 34°41' E 135°11'0 0.0
2016-Feb-06 16:33N 34°41' E 135°11'0 0.0
2016-Feb-06 15:27N 34°41' E 135°11'0 0.0
2016-Feb-06 14:33N 34°41' E 135°11'0 0.0
2016-Feb-06 13:33N 34°41' E 135°11'0 0.0
2016-Feb-06 12:27N 34°41' E 135°11'7 7.9
2016-Feb-06 11:33N 34°35' E 135°06'1 1.4
2016-Feb-06 10:33N 34°37' E 135°06'6 5.8
2016-Feb-06 09:29N 34°41' E 135°11'2 2.1
2016-Feb-06 08:33N 34°39' E 135°11'2 2.3
2016-Feb-06 07:33N 34°37' E 135°13'4 3.7
2016-Feb-06 06:31N 34°41' E 135°11'0 0.0
2016-Feb-06 05:31N 34°41' E 135°11'2 1.9
2016-Feb-06 04:33N 34°39' E 135°11'2 2.4
2016-Feb-06 03:33N 34°37' E 135°13'4 3.6
2016-Feb-06 02:29N 34°41' E 135°11'0 0.0
2016-Feb-06 01:29N 34°41' E 135°11'0 0.0
2016-Feb-06 00:23N 34°41' E 135°11'0 0.0
2016-Feb-05 23:29N 34°41' E 135°11'0 0.0
2016-Feb-05 22:29N 34°41' E 135°11'0 0.0
2016-Feb-05 21:23N 34°41' E 135°11'0 0.0
2016-Feb-05 20:29N 34°41' E 135°11'0 0.0
2016-Feb-05 19:29N 34°41' E 135°11'0 0.0
2016-Feb-05 17:29N 34°41' E 135°11'0 0.0
2016-Feb-05 16:29N 34°41' E 135°11'0 0.0
2016-Feb-05 15:29N 34°41' E 135°11'0 0.0
2016-Feb-05 14:29N 34°41' E 135°11'0 0.0
2016-Feb-05 13:29N 34°41' E 135°11'0 0.0
2016-Feb-05 12:29N 34°41' E 135°11'5 5.8
2016-Feb-05 11:33N 34°36' E 135°08'1 1.4
2016-Feb-05 10:33N 34°37' E 135°06'6 5.9
2016-Feb-05 09:30N 34°41' E 135°11'5 5.3
2016-Feb-05 08:33N 34°37' E 135°07'5 4.2
2016-Feb-05 07:22N 34°41' E 135°11'0 0.0
2016-Feb-05 06:28N 34°41' E 135°11'0 0.0
2016-Feb-05 05:28N 34°41' E 135°11'2 2.3
2016-Feb-05 04:33N 34°39' E 135°11'2 2.2
2016-Feb-05 03:33N 34°37' E 135°13'4 3.8
2016-Feb-05 02:32N 34°41' E 135°11'0 0.0
2016-Feb-05 01:32N 34°41' E 135°11'0 0.0
2016-Feb-05 00:26N 34°41' E 135°11'0 0.0
2016-Feb-04 23:32N 34°41' E 135°11'0 0.0
2016-Feb-04 22:32N 34°41' E 135°11'0 0.0
2016-Feb-04 21:26N 34°41' E 135°11'0 0.0
2016-Feb-04 20:32N 34°41' E 135°11'0 0.0
2016-Feb-04 19:32N 34°41' E 135°11'0 0.0
2016-Feb-04 18:32N 34°41' E 135°11'0 0.0
2016-Feb-04 17:32N 34°41' E 135°11'0 0.0
2016-Feb-04 16:32N 34°41' E 135°11'0 0.0
2016-Feb-04 15:32N 34°41' E 135°11'0 0.0
2016-Feb-04 14:32N 34°41' E 135°11'0 0.0
2016-Feb-04 13:32N 34°41' E 135°11'0 0.0
2016-Feb-04 12:20N 34°41' E 135°11'5 6.7
2016-Feb-04 11:34N 34°37' E 135°07'1 1.2
2016-Feb-04 10:33N 34°37' E 135°06'6 5.8
2016-Feb-04 09:30N 34°41' E 135°11'  

Dump ship's entire track history